createdAt,value
2018-09-17T00:00:12.732Z,13.52
2018-09-17T00:01:12.703Z,13.46
2018-09-17T00:02:12.693Z,13.49
2018-09-17T00:03:12.685Z,13.42
2018-09-17T00:04:12.694Z,13.49
2018-09-17T00:05:12.661Z,13.46
2018-09-17T00:06:12.658Z,13.45
2018-09-17T00:07:12.640Z,13.45
2018-09-17T00:08:12.632Z,13.45
2018-09-17T00:09:12.618Z,13.46
2018-09-17T00:10:12.623Z,13.44
2018-09-17T00:11:12.598Z,13.39
2018-09-17T00:12:12.587Z,13.38
2018-09-17T00:13:12.580Z,13.42
2018-09-17T00:14:12.565Z,13.42
2018-09-17T00:15:12.576Z,13.32
2018-09-17T00:16:12.542Z,13.33
2018-09-17T00:17:12.534Z,13.38
2018-09-17T00:18:12.524Z,13.25
2018-09-17T00:19:12.513Z,13.33
2018-09-17T00:20:12.515Z,13.29
2018-09-17T00:21:12.490Z,13.28
2018-09-17T00:22:12.477Z,13.30
2018-09-17T00:23:12.468Z,13.26
2018-09-17T00:24:12.457Z,13.29
2018-09-17T00:25:12.459Z,13.26
2018-09-17T00:26:12.435Z,13.30
2018-09-17T00:27:12.440Z,13.32
2018-09-17T00:28:12.412Z,13.33
2018-09-17T00:29:12.400Z,13.22
2018-09-17T00:30:12.407Z,13.22
2018-09-17T00:31:12.382Z,13.25
2018-09-17T00:32:12.384Z,13.19
2018-09-17T00:33:12.357Z,13.17
2018-09-17T00:34:12.366Z,13.20
2018-09-17T00:35:12.339Z,13.12
2018-09-17T00:36:12.325Z,13.12
2018-09-17T00:37:12.316Z,13.12
2018-09-17T00:38:12.306Z,13.12
2018-09-17T00:39:12.296Z,13.05
2018-09-17T00:40:12.317Z,13.00
2018-09-17T00:41:12.273Z,12.97
2018-09-17T00:42:12.260Z,12.96
2018-09-17T00:43:12.255Z,13.01
2018-09-17T00:44:12.237Z,12.97
2018-09-17T00:45:12.227Z,12.96
2018-09-17T00:46:12.233Z,12.90
2018-09-17T00:47:12.205Z,13.04
2018-09-17T00:48:12.197Z,13.01
2018-09-17T00:49:12.244Z,12.93
2018-09-17T00:50:12.172Z,13.00
2018-09-17T00:51:12.165Z,12.96
2018-09-17T00:52:12.151Z,12.89
2018-09-17T00:53:12.143Z,12.89
2018-09-17T00:54:12.145Z,12.90
2018-09-17T00:55:12.123Z,12.90
2018-09-17T00:56:12.108Z,12.85
2018-09-17T00:57:12.099Z,12.96
2018-09-17T00:58:12.090Z,12.87
2018-09-17T00:59:12.091Z,12.92
2018-09-17T01:00:12.091Z,12.87
2018-09-17T01:01:12.055Z,12.86
2018-09-17T01:02:12.058Z,12.89
2018-09-17T01:03:12.053Z,12.83
2018-09-17T01:04:12.023Z,12.85
2018-09-17T01:05:12.012Z,12.87
2018-09-17T01:06:12.000Z,12.90
2018-09-17T01:07:11.990Z,12.92
2018-09-17T01:08:11.983Z,12.90
2018-09-17T01:09:11.983Z,12.77
2018-09-17T01:10:11.954Z,12.74
2018-09-17T01:11:11.946Z,12.79
2018-09-17T01:12:11.935Z,12.83
2018-09-17T01:13:11.922Z,12.72
2018-09-17T01:14:11.922Z,12.70
2018-09-17T01:15:11.901Z,12.72
2018-09-17T01:16:11.906Z,12.74
2018-09-17T01:17:11.880Z,12.74
2018-09-17T01:18:11.868Z,12.74
2018-09-17T01:19:11.860Z,12.70
2018-09-17T01:20:11.855Z,12.68
2018-09-17T01:21:11.852Z,12.62
2018-09-17T01:22:11.825Z,12.68
2018-09-17T01:23:11.813Z,12.64
2018-09-17T01:24:11.806Z,12.65
2018-09-17T01:25:11.793Z,12.59
2018-09-17T01:26:11.801Z,12.60
2018-09-17T01:27:11.774Z,12.60
2018-09-17T01:28:11.760Z,12.59
2018-09-17T01:29:11.751Z,12.60
2018-09-17T01:30:11.741Z,12.53
2018-09-17T01:31:11.741Z,12.59
2018-09-17T01:32:11.715Z,12.54
2018-09-17T01:33:11.721Z,12.59
2018-09-17T01:34:11.711Z,12.53
2018-09-17T01:35:11.699Z,12.53
2018-09-17T01:36:11.673Z,12.50
2018-09-17T01:37:11.662Z,12.49
2018-09-17T01:38:11.653Z,12.49
2018-09-17T01:39:11.639Z,12.52
2018-09-17T01:40:11.629Z,12.49
2018-09-17T01:41:11.645Z,12.50
2018-09-17T01:42:11.606Z,12.39
2018-09-17T01:43:11.598Z,12.42
2018-09-17T01:44:11.587Z,12.34
2018-09-17T01:45:11.576Z,12.45
2018-09-17T01:46:11.629Z,12.37
2018-09-17T01:47:11.571Z,12.42
2018-09-17T01:48:11.541Z,12.29
2018-09-17T01:49:11.547Z,12.31
2018-09-17T01:50:11.518Z,12.27
2018-09-17T01:51:11.509Z,12.41
2018-09-17T01:52:11.499Z,12.31
2018-09-17T01:53:11.485Z,12.31
2018-09-17T01:54:11.498Z,12.35
2018-09-17T01:55:11.466Z,12.35
2018-09-17T01:56:11.455Z,12.32
2018-09-17T01:57:11.441Z,12.29
2018-09-17T01:58:11.433Z,12.31
2018-09-17T01:59:11.421Z,12.29
2018-09-17T02:00:11.430Z,12.29
2018-09-17T02:01:11.399Z,12.27
2018-09-17T02:02:11.391Z,12.29
2018-09-17T02:03:11.375Z,12.20
2018-09-17T02:04:11.366Z,12.17
2018-09-17T02:05:11.351Z,12.23
2018-09-17T02:06:11.358Z,12.17
2018-09-17T02:07:11.334Z,12.17
2018-09-17T02:08:11.343Z,12.19
2018-09-17T02:09:11.440Z,12.21
2018-09-17T02:10:11.299Z,12.19
2018-09-17T02:11:11.290Z,12.17
2018-09-17T02:12:11.276Z,12.13
2018-09-17T02:13:11.263Z,12.16
2018-09-17T02:14:11.254Z,12.14
2018-09-17T02:15:11.255Z,12.09
2018-09-17T02:16:11.231Z,12.14
2018-09-17T02:17:11.237Z,12.07
2018-09-17T02:18:11.210Z,12.10
2018-09-17T02:19:11.201Z,12.14
2018-09-17T02:20:11.203Z,12.07
2018-09-17T02:21:11.180Z,12.01
2018-09-17T02:22:11.170Z,12.01
2018-09-17T02:23:11.157Z,11.98
2018-09-17T02:24:11.156Z,12.01
2018-09-17T02:25:11.134Z,12.05
2018-09-17T02:26:11.121Z,12.04
2018-09-17T02:27:11.111Z,11.98
2018-09-17T02:28:11.113Z,11.95
2018-09-17T02:29:11.105Z,12.07
2018-09-17T02:30:11.079Z,11.95
2018-09-17T02:31:11.071Z,11.91
2018-09-17T02:32:11.057Z,11.91
2018-09-17T02:33:11.062Z,11.94
2018-09-17T02:34:11.036Z,11.90
2018-09-17T02:35:11.022Z,11.90
2018-09-17T02:36:11.012Z,11.91
2018-09-17T02:37:11.003Z,11.94
2018-09-17T02:38:11.006Z,11.86
2018-09-17T02:39:10.979Z,11.96
2018-09-17T02:40:10.987Z,11.95
2018-09-17T02:41:10.959Z,11.78
2018-09-17T02:42:10.947Z,11.79
2018-09-17T02:43:10.937Z,11.86
2018-09-17T02:44:10.925Z,11.91
2018-09-17T02:45:10.933Z,11.82
2018-09-17T02:46:10.908Z,11.82
2018-09-17T02:47:10.895Z,11.80
2018-09-17T02:48:10.884Z,11.73
2018-09-17T02:49:10.874Z,11.75
2018-09-17T02:50:10.876Z,11.82
2018-09-17T02:51:10.851Z,11.76
2018-09-17T02:52:10.839Z,11.82
2018-09-17T02:53:10.829Z,11.85
2018-09-17T02:54:10.830Z,11.80
2018-09-17T02:55:10.830Z,11.80
2018-09-17T02:56:10.797Z,11.75
2018-09-17T02:57:10.783Z,11.94
2018-09-17T02:58:10.774Z,11.78
2018-09-17T02:59:10.762Z,11.91
2018-09-17T03:00:10.751Z,11.86
2018-09-17T03:01:10.759Z,11.94
2018-09-17T03:02:10.735Z,11.79
2018-09-17T03:03:10.719Z,11.80
2018-09-17T03:04:10.708Z,11.83
2018-09-17T03:05:10.695Z,11.88
2018-09-17T03:06:10.706Z,11.85
2018-09-17T03:07:10.673Z,11.90
2018-09-17T03:08:10.664Z,11.88
2018-09-17T03:09:10.653Z,11.91
2018-09-17T03:10:10.644Z,11.83
2018-09-17T03:11:10.631Z,11.91
2018-09-17T03:12:10.661Z,11.86
2018-09-17T03:13:10.608Z,11.90
2018-09-17T03:14:10.601Z,11.94
2018-09-17T03:15:10.587Z,11.94
2018-09-17T03:16:10.578Z,11.90
2018-09-17T03:17:10.566Z,11.90
2018-09-17T03:18:10.597Z,11.85
2018-09-17T03:19:10.543Z,11.90
2018-09-17T03:20:10.535Z,11.91
2018-09-17T03:21:10.519Z,11.85
2018-09-17T03:22:10.508Z,11.90
2018-09-17T03:23:10.496Z,11.82
2018-09-17T03:24:10.502Z,11.79
2018-09-17T03:25:10.483Z,11.82
2018-09-17T03:26:10.467Z,11.85
2018-09-17T03:27:10.466Z,11.86
2018-09-17T03:28:10.455Z,11.80
2018-09-17T03:29:10.430Z,11.82
2018-09-17T03:30:10.419Z,11.80
2018-09-17T03:31:10.410Z,11.70
2018-09-17T03:32:10.412Z,11.75
2018-09-17T03:33:10.387Z,11.79
2018-09-17T03:34:10.389Z,11.80
2018-09-17T03:35:10.368Z,11.80
2018-09-17T03:36:10.354Z,11.78
2018-09-17T03:37:10.345Z,11.82
2018-09-17T03:38:10.374Z,11.79
2018-09-17T03:39:10.325Z,11.69
2018-09-17T03:40:10.311Z,11.72
2018-09-17T03:41:10.305Z,11.72
2018-09-17T03:42:10.294Z,11.72
2018-09-17T03:43:10.284Z,11.62
2018-09-17T03:44:10.282Z,11.64
2018-09-17T03:45:10.254Z,11.60
2018-09-17T03:46:10.304Z,11.64
2018-09-17T03:47:10.235Z,11.60
2018-09-17T03:48:10.226Z,11.61
2018-09-17T03:49:10.225Z,11.62
2018-09-17T03:50:10.214Z,11.57
2018-09-17T03:51:10.191Z,11.61
2018-09-17T03:52:10.197Z,11.58
2018-09-17T03:53:10.165Z,11.49
2018-09-17T03:54:10.154Z,11.54
2018-09-17T03:55:10.144Z,11.52
2018-09-17T03:56:10.134Z,11.55
2018-09-17T03:57:10.150Z,11.54
2018-09-17T03:58:10.115Z,11.58
2018-09-17T03:59:10.101Z,11.49
2018-09-17T04:00:10.093Z,11.46
2018-09-17T04:01:10.081Z,11.46
2018-09-17T04:02:10.071Z,11.52
2018-09-17T04:03:10.074Z,11.47
2018-09-17T04:04:10.051Z,11.46
2018-09-17T04:05:10.035Z,11.51
2018-09-17T04:06:10.041Z,11.43
2018-09-17T04:07:10.030Z,11.42
2018-09-17T04:08:10.004Z,11.44
2018-09-17T04:09:10.024Z,11.40
2018-09-17T04:10:09.982Z,11.44
2018-09-17T04:11:09.972Z,11.49
2018-09-17T04:12:09.972Z,11.44
2018-09-17T04:13:09.951Z,11.42
2018-09-17T04:14:09.939Z,11.43
2018-09-17T04:15:09.926Z,11.42
2018-09-17T04:16:10.771Z,11.47
2018-09-17T04:17:09.922Z,11.51
2018-09-17T04:18:09.893Z,11.46
2018-09-17T04:19:09.881Z,11.49
2018-09-17T04:20:09.870Z,11.49
2018-09-17T04:21:09.859Z,11.47
2018-09-17T04:22:09.863Z,11.40
2018-09-17T04:23:09.858Z,11.42
2018-09-17T04:24:09.829Z,11.43
2018-09-17T04:25:09.818Z,11.42
2018-09-17T04:26:09.804Z,11.40
2018-09-17T04:27:09.797Z,11.40
2018-09-17T04:28:09.784Z,11.42
2018-09-17T04:29:09.798Z,11.36
2018-09-17T04:30:09.762Z,11.42
2018-09-17T04:31:09.749Z,11.43
2018-09-17T04:32:09.739Z,11.39
2018-09-17T04:33:09.801Z,11.40
2018-09-17T04:34:09.717Z,11.36
2018-09-17T04:35:09.727Z,11.36
2018-09-17T04:36:09.697Z,11.35
2018-09-17T04:37:09.685Z,11.43
2018-09-17T04:38:09.674Z,11.35
2018-09-17T04:39:09.663Z,11.32
2018-09-17T04:40:09.664Z,11.35
2018-09-17T04:41:09.657Z,11.35
2018-09-17T04:42:09.631Z,11.36
2018-09-17T04:43:09.666Z,11.47
2018-09-17T04:44:09.609Z,11.43
2018-09-17T04:45:09.619Z,11.49
2018-09-17T04:46:09.602Z,11.44
2018-09-17T04:47:09.577Z,11.42
2018-09-17T04:48:09.565Z,11.37
2018-09-17T04:49:09.568Z,11.42
2018-09-17T04:50:09.546Z,11.44
2018-09-17T04:51:09.535Z,11.37
2018-09-17T04:52:09.522Z,11.42
2018-09-17T04:53:09.510Z,11.46
2018-09-17T04:54:09.554Z,11.43
2018-09-17T04:55:09.490Z,11.40
2018-09-17T04:56:09.482Z,11.44
2018-09-17T04:57:09.508Z,11.42
2018-09-17T04:58:09.460Z,11.42
2018-09-17T04:59:09.446Z,11.39
2018-09-17T05:00:09.458Z,11.37
2018-09-17T05:01:09.425Z,11.37
2018-09-17T05:02:09.416Z,11.40
2018-09-17T05:03:09.404Z,11.35
2018-09-17T05:04:09.393Z,11.37
2018-09-17T05:05:09.380Z,11.36
2018-09-17T05:06:09.379Z,11.46
2018-09-17T05:07:09.397Z,11.39
2018-09-17T05:08:09.349Z,11.42
2018-09-17T05:09:09.337Z,11.40
2018-09-17T05:10:09.339Z,11.44
2018-09-17T05:11:09.327Z,11.43
2018-09-17T05:12:09.308Z,11.42
2018-09-17T05:13:09.309Z,11.40
2018-09-17T05:14:09.286Z,11.39
2018-09-17T05:15:09.272Z,11.40
2018-09-17T05:16:09.277Z,11.39
2018-09-17T05:17:09.261Z,11.51
2018-09-17T05:18:09.240Z,11.49
2018-09-17T05:19:09.234Z,11.49
2018-09-17T05:20:09.220Z,11.52
2018-09-17T05:21:09.209Z,11.47
2018-09-17T05:22:09.210Z,11.49
2018-09-17T05:23:09.188Z,11.46
2018-09-17T05:24:09.176Z,11.49
2018-09-17T05:25:09.162Z,11.47
2018-09-17T05:26:09.167Z,11.46
2018-09-17T05:27:09.145Z,11.54
2018-09-17T05:28:09.134Z,11.54
2018-09-17T05:29:09.122Z,11.55
2018-09-17T05:30:09.111Z,11.47
2018-09-17T05:31:09.100Z,11.55
2018-09-17T05:32:09.098Z,11.60
2018-09-17T05:33:09.074Z,11.57
2018-09-17T05:34:09.068Z,11.57
2018-09-17T05:35:09.112Z,11.60
2018-09-17T05:36:09.045Z,11.61
2018-09-17T05:37:09.049Z,11.60
2018-09-17T05:38:09.023Z,11.64
2018-09-17T05:39:09.009Z,11.64
2018-09-17T05:40:08.999Z,11.70
2018-09-17T05:41:08.989Z,11.64
2018-09-17T05:42:08.978Z,11.69
2018-09-17T05:43:08.984Z,11.70
2018-09-17T05:44:08.958Z,11.73
2018-09-17T05:45:08.944Z,11.73
2018-09-17T05:46:08.935Z,11.80
2018-09-17T05:47:08.925Z,11.78
2018-09-17T05:48:08.950Z,11.76
2018-09-17T05:49:08.912Z,11.83
2018-09-17T05:50:08.894Z,11.82
2018-09-17T05:51:08.878Z,11.94
2018-09-17T05:52:08.871Z,11.94
2018-09-17T05:53:08.857Z,11.99
2018-09-17T05:54:08.884Z,12.01
2018-09-17T05:55:08.838Z,12.01
2018-09-17T05:56:08.825Z,12.05
2018-09-17T05:57:08.824Z,12.02
2018-09-17T05:58:08.809Z,12.13
2018-09-17T05:59:08.790Z,12.07
2018-09-17T06:00:08.794Z,12.21
2018-09-17T06:01:08.772Z,12.16
2018-09-17T06:02:08.762Z,12.19
2018-09-17T06:03:08.750Z,12.27
2018-09-17T06:04:08.740Z,12.31
2018-09-17T06:05:08.745Z,12.32
2018-09-17T06:06:08.763Z,12.32
2018-09-17T06:07:08.761Z,12.37
2018-09-17T06:08:08.691Z,12.46
2018-09-17T06:09:08.685Z,12.42
2018-09-17T06:10:08.684Z,12.49
2018-09-17T06:11:08.729Z,12.41
2018-09-17T06:12:08.649Z,12.59
2018-09-17T06:13:08.641Z,12.56
2018-09-17T06:14:08.627Z,12.56
2018-09-17T06:15:08.616Z,12.59
2018-09-17T06:16:08.626Z,12.65
2018-09-17T06:17:08.598Z,12.59
2018-09-17T06:18:08.586Z,12.67
2018-09-17T06:19:08.573Z,12.74
2018-09-17T06:20:08.566Z,12.77
2018-09-17T06:21:08.554Z,12.74
2018-09-17T06:22:08.553Z,12.71
2018-09-17T06:23:08.535Z,12.72
2018-09-17T06:24:08.523Z,12.87
2018-09-17T06:25:08.525Z,12.86
2018-09-17T06:26:08.512Z,13.00
2018-09-17T06:27:08.489Z,12.96
2018-09-17T06:28:08.502Z,13.05
2018-09-17T06:29:08.469Z,13.01
2018-09-17T06:30:08.453Z,13.20
2018-09-17T06:31:08.442Z,13.22
2018-09-17T06:32:08.435Z,13.23
2018-09-17T06:33:08.424Z,13.30
2018-09-17T06:34:08.438Z,13.44
2018-09-17T06:35:08.398Z,13.51
2018-09-17T06:36:08.456Z,13.46
2018-09-17T06:37:08.377Z,13.49
2018-09-17T06:38:08.366Z,13.57
2018-09-17T06:39:08.394Z,13.52
2018-09-17T06:40:08.346Z,13.67
2018-09-17T06:41:08.334Z,13.70
2018-09-17T06:42:08.324Z,13.71
2018-09-17T06:43:08.313Z,13.84
2018-09-17T06:44:08.305Z,13.81
2018-09-17T06:45:08.303Z,13.82
2018-09-17T06:46:08.283Z,14.00
2018-09-17T06:47:08.274Z,13.95
2018-09-17T06:48:08.275Z,14.09
2018-09-17T06:49:08.262Z,14.18
2018-09-17T06:50:08.234Z,14.12
2018-09-17T06:51:08.224Z,14.21
2018-09-17T06:52:08.212Z,14.37
2018-09-17T06:53:08.202Z,14.33
2018-09-17T06:54:08.193Z,14.35
2018-09-17T06:55:08.193Z,14.46
2018-09-17T06:56:08.170Z,14.52
2018-09-17T06:57:08.160Z,14.58
2018-09-17T06:58:08.149Z,14.60
2018-09-17T06:59:08.139Z,14.72
2018-09-17T07:00:08.140Z,14.72
2018-09-17T07:01:08.116Z,14.84
2018-09-17T07:02:08.107Z,14.89
2018-09-17T07:03:08.094Z,14.95
2018-09-17T07:04:08.097Z,15.13
2018-09-17T07:05:08.114Z,15.21
2018-09-17T07:06:08.078Z,15.31
2018-09-17T07:07:08.052Z,15.39
2018-09-17T07:08:08.043Z,15.39
2018-09-17T07:09:08.028Z,15.51
2018-09-17T07:10:08.018Z,15.51
2018-09-17T07:11:08.024Z,15.50
2018-09-17T07:12:08.009Z,15.57
2018-09-17T07:13:07.988Z,15.57
2018-09-17T07:14:07.976Z,15.67
2018-09-17T07:15:07.968Z,15.67
2018-09-17T07:16:07.963Z,15.69
2018-09-17T07:17:07.960Z,15.76
2018-09-17T07:18:07.984Z,15.93
2018-09-17T07:19:07.923Z,16.00
2018-09-17T07:20:07.914Z,16.00
2018-09-17T07:21:07.901Z,16.09
2018-09-17T07:22:07.894Z,16.21
2018-09-17T07:23:07.901Z,16.27
2018-09-17T07:24:07.871Z,16.46
2018-09-17T07:25:07.860Z,16.63
2018-09-17T07:26:07.879Z,16.64
2018-09-17T07:27:07.838Z,16.81
2018-09-17T07:28:07.825Z,16.88
2018-09-17T07:29:07.831Z,17.11
2018-09-17T07:30:07.803Z,17.03
2018-09-17T07:31:07.795Z,17.14
2018-09-17T07:32:07.844Z,17.23
2018-09-17T07:33:07.797Z,17.38
2018-09-17T07:34:07.761Z,17.49
2018-09-17T07:35:07.750Z,17.59
2018-09-17T07:36:07.803Z,17.68
2018-09-17T07:37:07.731Z,17.78
2018-09-17T07:38:07.717Z,17.92
2018-09-17T07:39:07.728Z,18.12
2018-09-17T07:40:07.695Z,18.20
2018-09-17T07:41:07.684Z,18.30
2018-09-17T07:42:07.732Z,18.42
2018-09-17T07:43:07.665Z,18.54
2018-09-17T07:44:07.655Z,18.58
2018-09-17T07:45:07.657Z,18.72
2018-09-17T07:46:07.631Z,18.81
2018-09-17T07:47:07.621Z,18.90
2018-09-17T07:48:07.614Z,18.92
2018-09-17T07:49:07.601Z,18.92
2018-09-17T07:50:07.607Z,19.06
2018-09-17T07:51:07.577Z,19.11
2018-09-17T07:52:07.593Z,19.23
2018-09-17T07:53:07.627Z,19.22
2018-09-17T07:54:07.556Z,19.18
2018-09-17T07:55:07.535Z,19.16
2018-09-17T07:56:07.522Z,19.28
2018-09-17T07:57:07.524Z,19.22
2018-09-17T07:58:07.501Z,19.33
2018-09-17T07:59:07.507Z,19.47
2018-09-17T08:00:07.499Z,19.68
2018-09-17T08:01:07.471Z,19.81
2018-09-17T08:02:07.462Z,20.03
2018-09-17T08:03:07.452Z,19.94
2018-09-17T08:04:07.452Z,20.03
2018-09-17T08:05:07.431Z,20.10
2018-09-17T08:06:07.428Z,20.05
2018-09-17T08:07:07.412Z,20.16
2018-09-17T08:08:07.400Z,20.10
2018-09-17T08:09:07.387Z,20.14
2018-09-17T08:10:07.376Z,20.10
2018-09-17T08:11:07.387Z,19.88
2018-09-17T08:12:07.357Z,20.02
2018-09-17T08:13:07.344Z,20.03
2018-09-17T08:14:07.335Z,20.18
2018-09-17T08:15:07.324Z,20.05
2018-09-17T08:16:07.311Z,19.94
2018-09-17T08:17:07.368Z,20.02
2018-09-17T08:18:07.292Z,20.13
2018-09-17T08:19:07.279Z,20.20
2018-09-17T08:20:07.271Z,20.31
2018-09-17T08:21:07.261Z,20.36
2018-09-17T08:22:07.269Z,20.28
2018-09-17T08:23:07.239Z,20.26
2018-09-17T08:24:07.229Z,20.48
2018-09-17T08:25:07.217Z,20.42
2018-09-17T08:26:07.212Z,20.64
2018-09-17T08:27:07.200Z,20.64
2018-09-17T08:28:07.202Z,20.59
2018-09-17T08:29:07.177Z,20.73
2018-09-17T08:30:07.179Z,20.74
2018-09-17T08:31:07.153Z,20.87
2018-09-17T08:32:07.143Z,20.99
2018-09-17T08:33:07.148Z,21.09
2018-09-17T08:34:07.125Z,21.19
2018-09-17T08:35:07.113Z,21.04
2018-09-17T08:36:07.102Z,21.03
2018-09-17T08:37:07.093Z,21.04
2018-09-17T08:38:07.102Z,21.16
2018-09-17T08:39:07.088Z,21.09
2018-09-17T08:40:07.061Z,20.88
2018-09-17T08:41:07.049Z,20.88
2018-09-17T08:42:07.037Z,21.04
2018-09-17T08:43:07.027Z,21.12
2018-09-17T08:44:07.031Z,21.28
2018-09-17T08:45:07.006Z,21.47
2018-09-17T08:46:06.999Z,21.56
2018-09-17T08:47:06.986Z,21.61
2018-09-17T08:48:06.977Z,21.69
2018-09-17T08:49:06.989Z,21.92
2018-09-17T08:50:06.956Z,22.21
2018-09-17T08:51:06.946Z,22.43
2018-09-17T08:52:06.945Z,22.43
2018-09-17T08:53:06.939Z,22.30
2018-09-17T08:54:06.912Z,22.24
2018-09-17T08:55:06.921Z,22.25
2018-09-17T08:56:06.894Z,22.36
2018-09-17T08:57:06.884Z,22.36
2018-09-17T08:58:06.883Z,22.43
2018-09-17T08:59:06.862Z,22.49
2018-09-17T09:00:06.869Z,22.40
2018-09-17T09:01:06.840Z,22.37
2018-09-17T09:02:06.833Z,22.46
2018-09-17T09:03:06.818Z,22.46
2018-09-17T09:04:06.880Z,22.55
2018-09-17T09:05:06.921Z,22.55
2018-09-17T09:06:06.788Z,22.58
2018-09-17T09:07:06.776Z,22.60
2018-09-17T09:08:06.769Z,22.57
2018-09-17T09:09:06.757Z,22.57
2018-09-17T09:10:06.744Z,22.60
2018-09-17T09:11:06.750Z,22.57
2018-09-17T09:12:06.726Z,22.65
2018-09-17T09:13:06.713Z,22.45
2018-09-17T09:14:06.708Z,22.46
2018-09-17T09:15:06.698Z,22.02
2018-09-17T09:16:06.698Z,21.91
2018-09-17T09:17:06.683Z,21.65
2018-09-17T09:18:06.661Z,21.75
2018-09-17T09:19:06.653Z,21.80
2018-09-17T09:20:06.641Z,21.82
2018-09-17T09:21:06.662Z,21.90
2018-09-17T09:22:06.620Z,21.88
2018-09-17T09:23:06.648Z,21.90
2018-09-17T09:24:06.600Z,21.86
2018-09-17T09:25:06.590Z,21.98
2018-09-17T09:26:06.609Z,21.92
2018-09-17T09:27:06.567Z,21.96
2018-09-17T09:28:06.558Z,22.09
2018-09-17T09:29:06.565Z,22.21
2018-09-17T09:30:06.535Z,22.31
2018-09-17T09:31:06.525Z,22.52
2018-09-17T09:32:06.515Z,22.57
2018-09-17T09:33:06.506Z,22.40
2018-09-17T09:34:06.494Z,22.46
2018-09-17T09:35:06.496Z,22.45
2018-09-17T09:36:06.496Z,22.35
2018-09-17T09:37:06.462Z,22.39
2018-09-17T09:38:06.493Z,22.46
2018-09-17T09:39:06.439Z,22.57
2018-09-17T09:40:06.434Z,22.54
2018-09-17T09:41:06.420Z,22.55
2018-09-17T09:42:06.463Z,22.55
2018-09-17T09:43:06.400Z,22.76
2018-09-17T09:44:06.391Z,22.77
2018-09-17T09:45:06.390Z,22.65
2018-09-17T09:46:06.370Z,22.76
2018-09-17T09:47:06.409Z,22.92
2018-09-17T09:48:06.345Z,23.04
2018-09-17T09:49:06.372Z,23.05
2018-09-17T09:50:06.392Z,23.20
2018-09-17T09:51:06.314Z,23.22
2018-09-17T09:52:06.307Z,23.25
2018-09-17T09:53:06.330Z,23.42
2018-09-17T09:54:06.283Z,23.53
2018-09-17T09:55:06.288Z,23.54
2018-09-17T09:56:06.262Z,23.63
2018-09-17T09:57:06.254Z,23.79
2018-09-17T09:58:06.240Z,23.97
2018-09-17T09:59:06.230Z,24.15
2018-09-17T10:00:06.233Z,24.32
2018-09-17T10:01:06.211Z,24.42
2018-09-17T10:02:06.199Z,24.37
2018-09-17T10:03:06.191Z,24.39
2018-09-17T10:04:06.183Z,24.45
2018-09-17T10:05:06.185Z,24.40
2018-09-17T10:06:06.157Z,24.37
2018-09-17T10:07:06.247Z,24.37
2018-09-17T10:08:06.141Z,24.39
2018-09-17T10:09:06.126Z,24.49
2018-09-17T10:10:06.140Z,24.40
2018-09-17T10:11:06.143Z,24.43
2018-09-17T10:12:06.098Z,24.32
2018-09-17T10:13:06.087Z,24.35
2018-09-17T10:14:06.083Z,24.39
2018-09-17T10:15:06.078Z,24.52
2018-09-17T10:16:06.073Z,24.65
2018-09-17T10:17:06.044Z,24.78
2018-09-17T10:18:06.034Z,24.93
2018-09-17T10:19:06.045Z,24.90
2018-09-17T10:20:06.038Z,25.02
2018-09-17T10:21:06.038Z,24.98
2018-09-17T10:22:06.058Z,25.06
2018-09-17T10:23:06.028Z,25.09
2018-09-17T10:24:05.972Z,25.09
2018-09-17T10:25:05.980Z,24.98
2018-09-17T10:26:05.954Z,25.05
2018-09-17T10:27:05.942Z,25.02
2018-09-17T10:28:06.046Z,25.03
2018-09-17T10:29:05.922Z,25.00
2018-09-17T10:30:05.912Z,24.98
2018-09-17T10:31:05.917Z,24.95
2018-09-17T10:32:05.889Z,25.08
2018-09-17T10:33:05.879Z,24.98
2018-09-17T10:34:05.868Z,24.96
2018-09-17T10:35:05.859Z,24.99
2018-09-17T10:36:05.886Z,25.09
2018-09-17T10:37:05.839Z,25.13
2018-09-17T10:38:05.828Z,25.02
2018-09-17T10:39:05.819Z,24.96
2018-09-17T10:40:05.810Z,24.68
2018-09-17T10:41:05.888Z,24.80
2018-09-17T10:42:05.802Z,24.84
2018-09-17T10:43:05.776Z,24.96
2018-09-17T10:44:05.766Z,25.03
2018-09-17T10:45:05.806Z,25.24
2018-09-17T10:46:05.749Z,25.36
2018-09-17T10:47:05.753Z,25.54
2018-09-17T10:48:05.727Z,25.65
2018-09-17T10:49:05.715Z,25.67
2018-09-17T10:50:05.704Z,25.55
2018-09-17T10:51:05.696Z,25.60
2018-09-17T10:52:05.700Z,25.72
2018-09-17T10:53:05.715Z,25.72
2018-09-17T10:54:05.662Z,25.72
2018-09-17T10:55:05.652Z,25.69
2018-09-17T10:56:05.710Z,25.60
2018-09-17T10:57:05.696Z,25.61
2018-09-17T10:58:05.620Z,25.62
2018-09-17T10:59:05.628Z,25.64
2018-09-17T11:00:05.602Z,25.62
2018-09-17T11:01:05.591Z,25.65
2018-09-17T11:02:05.581Z,25.62
2018-09-17T11:03:05.637Z,25.75
2018-09-17T11:04:05.558Z,25.79
2018-09-17T11:05:05.564Z,25.79
2018-09-17T11:06:05.537Z,25.95
2018-09-17T11:07:05.530Z,26.01
2018-09-17T11:08:05.521Z,26.12
2018-09-17T11:09:05.506Z,26.25
2018-09-17T11:10:05.537Z,26.18
2018-09-17T11:11:05.487Z,26.26
2018-09-17T11:12:05.584Z,26.12
2018-09-17T11:13:05.466Z,26.10
2018-09-17T11:14:05.567Z,25.99
2018-09-17T11:15:05.446Z,26.07
2018-09-17T11:16:05.463Z,26.01
2018-09-17T11:17:05.428Z,26.17
2018-09-17T11:18:05.414Z,26.32
2018-09-17T11:19:05.460Z,26.37
2018-09-17T11:20:05.394Z,26.50
2018-09-17T11:21:05.386Z,26.51
2018-09-17T11:22:05.385Z,26.54
2018-09-17T11:23:05.362Z,26.62
2018-09-17T11:24:05.412Z,26.54
2018-09-17T11:25:05.415Z,26.50
2018-09-17T11:26:05.452Z,26.45
2018-09-17T11:27:05.325Z,26.44
2018-09-17T11:28:05.313Z,26.50
2018-09-17T11:29:05.306Z,26.54
2018-09-17T11:30:05.309Z,26.45
2018-09-17T11:31:05.280Z,26.51
2018-09-17T11:32:05.297Z,26.58
2018-09-17T11:33:05.263Z,26.57
2018-09-17T11:34:05.255Z,26.69
2018-09-17T11:35:05.240Z,26.63
2018-09-17T11:36:05.230Z,26.51
2018-09-17T11:37:05.229Z,26.62
2018-09-17T11:38:05.225Z,26.39
2018-09-17T11:39:05.202Z,26.29
2018-09-17T11:40:05.286Z,26.21
2018-09-17T11:41:05.188Z,26.35
2018-09-17T11:42:05.173Z,26.51
2018-09-17T11:43:05.160Z,26.54
2018-09-17T11:44:05.164Z,26.60
2018-09-17T11:45:05.138Z,26.54
2018-09-17T11:46:05.130Z,26.62
2018-09-17T11:47:05.145Z,26.55
2018-09-17T11:48:05.115Z,26.70
2018-09-17T11:49:05.112Z,26.89
2018-09-17T11:50:05.220Z,26.97
2018-09-17T11:51:05.076Z,27.12
2018-09-17T11:52:05.064Z,27.07
2018-09-17T11:53:05.064Z,27.10
2018-09-17T11:54:05.164Z,27.22
2018-09-17T11:55:05.095Z,27.34
2018-09-17T11:56:05.075Z,27.39
2018-09-17T11:57:05.015Z,27.31
2018-09-17T11:58:05.007Z,27.39
2018-09-17T11:59:05.031Z,27.28
2018-09-17T12:00:04.987Z,27.32
2018-09-17T12:01:04.974Z,27.25
2018-09-17T12:02:04.974Z,27.34
2018-09-17T12:03:05.070Z,27.31
2018-09-17T12:04:04.950Z,27.37
2018-09-17T12:05:04.955Z,27.44
2018-09-17T12:06:04.965Z,27.44
2018-09-17T12:07:04.913Z,27.41
2018-09-17T12:08:04.910Z,27.31
2018-09-17T12:09:04.912Z,27.27
2018-09-17T12:10:04.910Z,27.31
2018-09-17T12:11:04.893Z,27.39
2018-09-17T12:12:04.865Z,27.37
2018-09-17T12:13:04.900Z,27.24
2018-09-17T12:14:04.975Z,27.19
2018-09-17T12:15:04.842Z,27.18
2018-09-17T12:16:04.920Z,27.17
2018-09-17T12:17:04.812Z,27.18
2018-09-17T12:18:04.803Z,27.12
2018-09-17T12:19:04.793Z,27.09
2018-09-17T12:20:04.780Z,27.06
2018-09-17T12:21:04.770Z,27.14
2018-09-17T12:22:04.831Z,27.07
2018-09-17T12:23:04.754Z,27.18
2018-09-17T12:24:04.750Z,27.09
2018-09-17T12:25:04.733Z,26.95
2018-09-17T12:26:04.752Z,26.84
2018-09-17T12:27:04.747Z,27.02
2018-09-17T12:28:04.701Z,27.19
2018-09-17T12:29:04.689Z,27.44
2018-09-17T12:30:04.678Z,27.66
2018-09-17T12:31:04.671Z,27.74
2018-09-17T12:32:05.366Z,27.82
2018-09-17T12:33:04.757Z,27.85
2018-09-17T12:34:04.639Z,28.07
2018-09-17T12:35:04.629Z,28.14
2018-09-17T12:36:04.638Z,27.92
2018-09-17T12:37:04.610Z,27.75
2018-09-17T12:38:04.612Z,27.75
2018-09-17T12:39:04.587Z,27.75
2018-09-17T12:40:04.693Z,27.87
2018-09-17T12:41:04.567Z,27.90
2018-09-17T12:42:04.555Z,27.99
2018-09-17T12:43:04.558Z,27.88
2018-09-17T12:44:04.554Z,27.87
2018-09-17T12:45:04.527Z,27.94
2018-09-17T12:46:04.521Z,27.85
2018-09-17T12:47:04.587Z,27.87
2018-09-17T12:48:04.497Z,27.94
2018-09-17T12:49:04.578Z,27.88
2018-09-17T12:50:04.475Z,27.92
2018-09-17T12:51:04.466Z,28.03
2018-09-17T12:52:04.455Z,28.19